sensor_id;sensor_type;location;lat;lon;timestamp;temperature;humidity
45383;DHT22;42455;51.660;5.824;2024-02-15T00:02:14;14.7;98.5
45383;DHT22;42455;51.660;5.824;2024-02-15T00:07:20;14.7;98.5
45383;DHT22;42455;51.660;5.824;2024-02-15T00:12:27;14.7;98.5
45383;DHT22;42455;51.660;5.824;2024-02-15T00:17:33;14.6;98.5
45383;DHT22;42455;51.660;5.824;2024-02-15T00:22:39;14.6;98.5
45383;DHT22;42455;51.660;5.824;2024-02-15T00:27:45;14.6;98.5
45383;DHT22;42455;51.660;5.824;2024-02-15T00:32:51;14.6;98.5
45383;DHT22;42455;51.660;5.824;2024-02-15T00:37:58;14.6;98.5
45383;DHT22;42455;51.660;5.824;2024-02-15T00:43:04;14.6;98.5
45383;DHT22;42455;51.660;5.824;2024-02-15T00:48:10;14.6;98.5
45383;DHT22;42455;51.660;5.824;2024-02-15T00:53:16;14.6;98.5
45383;DHT22;42455;51.660;5.824;2024-02-15T00:58:23;14.5;98.5
45383;DHT22;42455;51.660;5.824;2024-02-15T01:03:29;14.5;98.5
45383;DHT22;42455;51.660;5.824;2024-02-15T01:08:35;14.5;98.5
45383;DHT22;42455;51.660;5.824;2024-02-15T01:13:41;14.5;98.5
45383;DHT22;42455;51.660;5.824;2024-02-15T01:18:47;14.5;98.5
45383;DHT22;42455;51.660;5.824;2024-02-15T01:23:53;14.5;98.5
45383;DHT22;42455;51.660;5.824;2024-02-15T01:29:00;14.5;98.5
45383;DHT22;42455;51.660;5.824;2024-02-15T01:34:06;14.5;98.5
45383;DHT22;42455;51.660;5.824;2024-02-15T01:39:12;14.5;98.5
45383;DHT22;42455;51.660;5.824;2024-02-15T01:44:18;14.5;98.5
45383;DHT22;42455;51.660;5.824;2024-02-15T01:49:26;14.5;98.5
45383;DHT22;42455;51.660;5.824;2024-02-15T01:54:32;14.5;98.5
45383;DHT22;42455;51.660;5.824;2024-02-15T01:59:37;14.5;98.5
45383;DHT22;42455;51.660;5.824;2024-02-15T02:04:44;14.5;98.5
45383;DHT22;42455;51.660;5.824;2024-02-15T02:09:49;14.5;98.5
45383;DHT22;42455;51.660;5.824;2024-02-15T02:14:56;14.4;98.5
45383;DHT22;42455;51.660;5.824;2024-02-15T02:20:02;14.5;98.5
45383;DHT22;42455;51.660;5.824;2024-02-15T02:25:08;14.4;98.5
45383;DHT22;42455;51.660;5.824;2024-02-15T02:30:15;14.4;98.5
45383;DHT22;42455;51.660;5.824;2024-02-15T02:35:20;14.4;98.5
45383;DHT22;42455;51.660;5.824;2024-02-15T02:40:27;14.4;98.5
45383;DHT22;42455;51.660;5.824;2024-02-15T02:45:33;14.4;98.5
45383;DHT22;42455;51.660;5.824;2024-02-15T02:50:39;14.4;98.5
45383;DHT22;42455;51.660;5.824;2024-02-15T02:55:45;14.4;98.5
45383;DHT22;42455;51.660;5.824;2024-02-15T03:00:52;14.4;98.5
45383;DHT22;42455;51.660;5.824;2024-02-15T03:05:58;14.4;98.5
45383;DHT22;42455;51.660;5.824;2024-02-15T03:11:04;14.4;98.5
45383;DHT22;42455;51.660;5.824;2024-02-15T03:16:10;14.4;98.5
45383;DHT22;42455;51.660;5.824;2024-02-15T03:21:16;14.4;98.5
45383;DHT22;42455;51.660;5.824;2024-02-15T03:26:31;14.4;98.5
45383;DHT22;42455;51.660;5.824;2024-02-15T03:31:29;14.4;98.5
45383;DHT22;42455;51.660;5.824;2024-02-15T03:36:35;14.4;98.5
45383;DHT22;42455;51.660;5.824;2024-02-15T03:41:41;14.3;98.5
45383;DHT22;42455;51.660;5.824;2024-02-15T03:46:47;14.3;98.5
45383;DHT22;42455;51.660;5.824;2024-02-15T03:51:54;14.4;98.5
45383;DHT22;42455;51.660;5.824;2024-02-15T03:57:00;14.3;98.5
45383;DHT22;42455;51.660;5.824;2024-02-15T04:02:06;14.4;98.5
45383;DHT22;42455;51.660;5.824;2024-02-15T04:07:12;14.4;98.5
45383;DHT22;42455;51.660;5.824;2024-02-15T04:12:18;14.4;98.5
45383;DHT22;42455;51.660;5.824;2024-02-15T04:17:25;14.4;98.5
45383;DHT22;42455;51.660;5.824;2024-02-15T04:22:31;14.4;98.5
45383;DHT22;42455;51.660;5.824;2024-02-15T04:27:36;14.4;98.5
45383;DHT22;42455;51.660;5.824;2024-02-15T04:32:42;14.4;98.5
45383;DHT22;42455;51.660;5.824;2024-02-15T04:37:50;14.4;98.5
45383;DHT22;42455;51.660;5.824;2024-02-15T04:42:55;14.4;98.5
45383;DHT22;42455;51.660;5.824;2024-02-15T04:48:01;14.5;98.5
45383;DHT22;42455;51.660;5.824;2024-02-15T04:53:07;14.5;98.5
45383;DHT22;42455;51.660;5.824;2024-02-15T04:58:12;14.5;98.5
45383;DHT22;42455;51.660;5.824;2024-02-15T05:03:19;14.5;98.5
45383;DHT22;42455;51.660;5.824;2024-02-15T05:08:25;14.5;98.5
45383;DHT22;42455;51.660;5.824;2024-02-15T05:13:32;14.5;98.5
45383;DHT22;42455;51.660;5.824;2024-02-15T05:18:37;14.5;98.5
45383;DHT22;42455;51.660;5.824;2024-02-15T05:23:43;14.4;98.5
45383;DHT22;42455;51.660;5.824;2024-02-15T05:28:50;14.5;98.5
45383;DHT22;42455;51.660;5.824;2024-02-15T05:33:56;14.4;98.5
45383;DHT22;42455;51.660;5.824;2024-02-15T05:39:02;14.4;98.5
45383;DHT22;42455;51.660;5.824;2024-02-15T05:44:08;14.4;98.5
45383;DHT22;42455;51.660;5.824;2024-02-15T05:49:15;14.4;98.5
45383;DHT22;42455;51.660;5.824;2024-02-15T05:54:21;14.5;98.5
45383;DHT22;42455;51.660;5.824;2024-02-15T05:59:27;14.4;98.5
45383;DHT22;42455;51.660;5.824;2024-02-15T06:04:33;14.4;98.5
45383;DHT22;42455;51.660;5.824;2024-02-15T06:09:39;14.4;98.5
45383;DHT22;42455;51.660;5.824;2024-02-15T06:14:46;14.4;98.5
45383;DHT22;42455;51.660;5.824;2024-02-15T06:19:52;14.4;98.5
45383;DHT22;42455;51.660;5.824;2024-02-15T06:24:58;14.4;98.5
45383;DHT22;42455;51.660;5.824;2024-02-15T06:30:05;14.4;98.5
45383;DHT22;42455;51.660;5.824;2024-02-15T06:35:10;14.4;98.5
45383;DHT22;42455;51.660;5.824;2024-02-15T06:40:17;14.4;98.5
45383;DHT22;42455;51.660;5.824;2024-02-15T06:45:23;14.3;98.5
45383;DHT22;42455;51.660;5.824;2024-02-15T06:50:29;14.3;98.5
45383;DHT22;42455;51.660;5.824;2024-02-15T06:55:37;14.3;98.5
45383;DHT22;42455;51.660;5.824;2024-02-15T07:00:41;14.3;98.5
45383;DHT22;42455;51.660;5.824;2024-02-15T07:05:48;14.3;98.5
45383;DHT22;42455;51.660;5.824;2024-02-15T07:10:54;14.3;98.5
45383;DHT22;42455;51.660;5.824;2024-02-15T07:16:00;14.3;98.5
45383;DHT22;42455;51.660;5.824;2024-02-15T07:21:06;14.3;98.5
45383;DHT22;42455;51.660;5.824;2024-02-15T07:31:19;14.4;98.5
45383;DHT22;42455;51.660;5.824;2024-02-15T07:36:25;14.3;98.5
45383;DHT22;42455;51.660;5.824;2024-02-15T07:41:31;14.4;98.5
45383;DHT22;42455;51.660;5.824;2024-02-15T07:46:37;14.3;98.5
45383;DHT22;42455;51.660;5.824;2024-02-15T07:51:44;14.3;98.5
45383;DHT22;42455;51.660;5.824;2024-02-15T07:56:50;14.3;98.5
45383;DHT22;42455;51.660;5.824;2024-02-15T08:01:56;14.3;98.5
45383;DHT22;42455;51.660;5.824;2024-02-15T08:07:02;14.3;98.5
45383;DHT22;42455;51.660;5.824;2024-02-15T08:12:08;14.4;98.5
45383;DHT22;42455;51.660;5.824;2024-02-15T08:17:15;14.4;98.5
45383;DHT22;42455;51.660;5.824;2024-02-15T08:22:21;14.4;98.5
45383;DHT22;42455;51.660;5.824;2024-02-15T08:27:27;14.4;98.5
45383;DHT22;42455;51.660;5.824;2024-02-15T08:32:33;14.4;98.5
45383;DHT22;42455;51.660;5.824;2024-02-15T08:37:40;14.4;98.5
45383;DHT22;42455;51.660;5.824;2024-02-15T08:42:47;14.4;98.5
45383;DHT22;42455;51.660;5.824;2024-02-15T08:47:52;14.5;98.5
45383;DHT22;42455;51.660;5.824;2024-02-15T08:52:58;14.5;98.5
45383;DHT22;42455;51.660;5.824;2024-02-15T08:58:04;14.5;98.5
45383;DHT22;42455;51.660;5.824;2024-02-15T09:03:11;14.6;98.5
45383;DHT22;42455;51.660;5.824;2024-02-15T09:08:17;14.6;98.5
45383;DHT22;42455;51.660;5.824;2024-02-15T09:13:23;14.7;98.5
45383;DHT22;42455;51.660;5.824;2024-02-15T09:18:29;14.7;98.5
45383;DHT22;42455;51.660;5.824;2024-02-15T09:23:35;14.7;98.5
45383;DHT22;42455;51.660;5.824;2024-02-15T09:28:42;14.8;98.5
45383;DHT22;42455;51.660;5.824;2024-02-15T09:33:48;14.8;98.5
45383;DHT22;42455;51.660;5.824;2024-02-15T09:44:00;14.8;98.5
45383;DHT22;42455;51.660;5.824;2024-02-15T09:49:06;14.9;98.5
45383;DHT22;42455;51.660;5.824;2024-02-15T09:54:13;14.9;98.5
45383;DHT22;42455;51.660;5.824;2024-02-15T09:59:19;15.0;98.5
45383;DHT22;42455;51.660;5.824;2024-02-15T10:04:25;15.0;98.5
45383;DHT22;42455;51.660;5.824;2024-02-15T10:09:32;15.0;98.5
45383;DHT22;42455;51.660;5.824;2024-02-15T10:14:37;15.1;98.5
45383;DHT22;42455;51.660;5.824;2024-02-15T10:19:44;15.1;98.5
45383;DHT22;42455;51.660;5.824;2024-02-15T10:24:50;15.2;98.5
45383;DHT22;42455;51.660;5.824;2024-02-15T10:30:14;15.2;98.5
45383;DHT22;42455;51.660;5.824;2024-02-15T10:35:02;15.2;98.5
45383;DHT22;42455;51.660;5.824;2024-02-15T10:40:08;15.3;98.5
45383;DHT22;42455;51.660;5.824;2024-02-15T10:45:14;15.3;98.5
45383;DHT22;42455;51.660;5.824;2024-02-15T10:50:20;15.4;98.5
45383;DHT22;42455;51.660;5.824;2024-02-15T10:55:37;15.5;98.5
45383;DHT22;42455;51.660;5.824;2024-02-15T11:00:33;15.6;98.5
45383;DHT22;42455;51.660;5.824;2024-02-15T11:05:41;15.6;98.5
45383;DHT22;42455;51.660;5.824;2024-02-15T11:10:45;15.7;98.5
45383;DHT22;42455;51.660;5.824;2024-02-15T11:15:51;15.7;98.5
45383;DHT22;42455;51.660;5.824;2024-02-15T11:20:57;15.7;98.5
45383;DHT22;42455;51.660;5.824;2024-02-15T11:26:04;15.8;98.5
45383;DHT22;42455;51.660;5.824;2024-02-15T11:31:10;15.8;98.5
45383;DHT22;42455;51.660;5.824;2024-02-15T11:36:16;15.9;98.5
45383;DHT22;42455;51.660;5.824;2024-02-15T11:41:22;15.9;98.5
45383;DHT22;42455;51.660;5.824;2024-02-15T11:46:28;16.0;98.5
45383;DHT22;42455;51.660;5.824;2024-02-15T11:51:36;16.0;98.5
45383;DHT22;42455;51.660;5.824;2024-02-15T11:56:49;16.1;98.5
45383;DHT22;42455;51.660;5.824;2024-02-15T12:01:47;16.2;98.5
45383;DHT22;42455;51.660;5.824;2024-02-15T12:06:56;16.2;98.5
45383;DHT22;42455;51.660;5.824;2024-02-15T12:11:59;16.3;98.5
45383;DHT22;42455;51.660;5.824;2024-02-15T12:17:06;16.3;98.5
45383;DHT22;42455;51.660;5.824;2024-02-15T12:22:12;16.4;98.5
45383;DHT22;42455;51.660;5.824;2024-02-15T12:27:18;16.5;98.5
45383;DHT22;42455;51.660;5.824;2024-02-15T12:32:25;16.6;98.5
45383;DHT22;42455;51.660;5.824;2024-02-15T12:37:30;16.7;98.5
45383;DHT22;42455;51.660;5.824;2024-02-15T12:42:37;16.9;98.5
45383;DHT22;42455;51.660;5.824;2024-02-15T12:47:43;17.0;98.5
45383;DHT22;42455;51.660;5.824;2024-02-15T12:52:49;17.1;98.5
45383;DHT22;42455;51.660;5.824;2024-02-15T12:57:55;17.2;98.5
45383;DHT22;42455;51.660;5.824;2024-02-15T13:03:03;17.3;98.5
45383;DHT22;42455;51.660;5.824;2024-02-15T13:08:08;17.4;98.5
45383;DHT22;42455;51.660;5.824;2024-02-15T13:13:14;17.5;98.5
45383;DHT22;42455;51.660;5.824;2024-02-15T13:18:20;17.5;98.0
45383;DHT22;42455;51.660;5.824;2024-02-15T13:23:26;17.7;98.0
45383;DHT22;42455;51.660;5.824;2024-02-15T13:28:32;17.8;97.5
45383;DHT22;42455;51.660;5.824;2024-02-15T13:33:39;17.9;97.5
45383;DHT22;42455;51.660;5.824;2024-02-15T13:38:45;17.9;97.5
45383;DHT22;42455;51.660;5.824;2024-02-15T13:43:51;18.0;97.0
45383;DHT22;42455;51.660;5.824;2024-02-15T13:48:57;18.1;97.0
45383;DHT22;42455;51.660;5.824;2024-02-15T13:54:03;18.2;96.5
45383;DHT22;42455;51.660;5.824;2024-02-15T13:59:10;18.2;96.0
45383;DHT22;42455;51.660;5.824;2024-02-15T14:04:16;18.3;96.0
45383;DHT22;42455;51.660;5.824;2024-02-15T14:09:22;18.4;96.0
45383;DHT22;42455;51.660;5.824;2024-02-15T14:14:28;18.5;96.0
45383;DHT22;42455;51.660;5.824;2024-02-15T14:19:34;18.5;95.5
45383;DHT22;42455;51.660;5.824;2024-02-15T14:24:42;18.5;95.0
45383;DHT22;42455;51.660;5.824;2024-02-15T14:29:47;18.6;94.5
45383;DHT22;42455;51.660;5.824;2024-02-15T14:34:53;18.6;94.5
45383;DHT22;42455;51.660;5.824;2024-02-15T14:39:59;18.6;94.5
45383;DHT22;42455;51.660;5.824;2024-02-15T14:45:07;18.6;94.0
45383;DHT22;42455;51.660;5.824;2024-02-15T14:50:12;18.6;94.0
45383;DHT22;42455;51.660;5.824;2024-02-15T14:55:18;18.6;94.0
45383;DHT22;42455;51.660;5.824;2024-02-15T15:00:24;18.6;94.0
45383;DHT22;42455;51.660;5.824;2024-02-15T15:05:31;18.6;93.5
45383;DHT22;42455;51.660;5.824;2024-02-15T15:10:37;18.6;93.0
45383;DHT22;42455;51.660;5.824;2024-02-15T15:15:43;18.5;93.0
45383;DHT22;42455;51.660;5.824;2024-02-15T15:20:49;18.5;92.5
45383;DHT22;42455;51.660;5.824;2024-02-15T15:25:55;18.4;92.5
45383;DHT22;42455;51.660;5.824;2024-02-15T15:31:01;18.4;92.0
45383;DHT22;42455;51.660;5.824;2024-02-15T15:36:08;18.3;92.0
45383;DHT22;42455;51.660;5.824;2024-02-15T15:41:14;18.3;92.0
45383;DHT22;42455;51.660;5.824;2024-02-15T15:46:20;18.3;92.0
45383;DHT22;42455;51.660;5.824;2024-02-15T15:51:26;18.2;92.0
45383;DHT22;42455;51.660;5.824;2024-02-15T15:56:33;18.2;92.0
45383;DHT22;42455;51.660;5.824;2024-02-15T16:01:38;18.2;92.0
45383;DHT22;42455;51.660;5.824;2024-02-15T16:06:44;18.1;92.0
45383;DHT22;42455;51.660;5.824;2024-02-15T16:11:50;18.1;92.0
45383;DHT22;42455;51.660;5.824;2024-02-15T16:16:56;18.0;91.5
45383;DHT22;42455;51.660;5.824;2024-02-15T16:22:03;18.0;91.5
45383;DHT22;42455;51.660;5.824;2024-02-15T16:27:09;17.9;91.5
45383;DHT22;42455;51.660;5.824;2024-02-15T16:32:15;17.9;91.5
45383;DHT22;42455;51.660;5.824;2024-02-15T16:37:21;17.8;91.5
45383;DHT22;42455;51.660;5.824;2024-02-15T16:42:27;17.7;91.5
45383;DHT22;42455;51.660;5.824;2024-02-15T16:47:34;17.6;91.0
45383;DHT22;42455;51.660;5.824;2024-02-15T16:52:40;17.5;91.0
45383;DHT22;42455;51.660;5.824;2024-02-15T16:57:46;17.4;91.0
45383;DHT22;42455;51.660;5.824;2024-02-15T17:02:52;17.3;91.0
45383;DHT22;42455;51.660;5.824;2024-02-15T17:07:58;17.2;91.0
45383;DHT22;42455;51.660;5.824;2024-02-15T17:13:05;17.1;91.0
45383;DHT22;42455;51.660;5.824;2024-02-15T17:18:11;17.0;91.0
45383;DHT22;42455;51.660;5.824;2024-02-15T17:23:17;16.8;91.5
45383;DHT22;42455;51.660;5.824;2024-02-15T17:28:23;16.7;91.5
45383;DHT22;42455;51.660;5.824;2024-02-15T17:33:29;16.5;91.5
45383;DHT22;42455;51.660;5.824;2024-02-15T17:38:36;16.4;92.0
45383;DHT22;42455;51.660;5.824;2024-02-15T17:43:42;16.3;92.5
45383;DHT22;42455;51.660;5.824;2024-02-15T17:48:48;16.2;92.5
45383;DHT22;42455;51.660;5.824;2024-02-15T17:53:54;16.1;92.5
45383;DHT22;42455;51.660;5.824;2024-02-15T17:59:00;16.0;92.5
45383;DHT22;42455;51.660;5.824;2024-02-15T18:04:07;15.9;93.0
45383;DHT22;42455;51.660;5.824;2024-02-15T18:09:13;15.9;93.0
45383;DHT22;42455;51.660;5.824;2024-02-15T18:14:19;15.8;93.0
45383;DHT22;42455;51.660;5.824;2024-02-15T18:19:25;15.7;93.0
45383;DHT22;42455;51.660;5.824;2024-02-15T18:24:31;15.7;93.0
45383;DHT22;42455;51.660;5.824;2024-02-15T18:29:38;15.7;93.0
45383;DHT22;42455;51.660;5.824;2024-02-15T18:34:44;15.7;93.0
45383;DHT22;42455;51.660;5.824;2024-02-15T18:39:50;15.7;93.0
45383;DHT22;42455;51.660;5.824;2024-02-15T18:44:56;15.7;93.0
45383;DHT22;42455;51.660;5.824;2024-02-15T18:50:03;15.6;93.0
45383;DHT22;42455;51.660;5.824;2024-02-15T18:55:09;15.6;93.0
45383;DHT22;42455;51.660;5.824;2024-02-15T19:00:15;15.6;93.0
45383;DHT22;42455;51.660;5.824;2024-02-15T19:05:21;15.5;93.0
45383;DHT22;42455;51.660;5.824;2024-02-15T19:10:27;15.5;93.0
45383;DHT22;42455;51.660;5.824;2024-02-15T19:15:34;15.5;93.0
45383;DHT22;42455;51.660;5.824;2024-02-15T19:20:40;15.5;93.0
45383;DHT22;42455;51.660;5.824;2024-02-15T19:25:46;15.4;93.0
45383;DHT22;42455;51.660;5.824;2024-02-15T19:30:52;15.4;93.0
45383;DHT22;42455;51.660;5.824;2024-02-15T19:35:58;15.4;93.0
45383;DHT22;42455;51.660;5.824;2024-02-15T19:41:05;15.4;93.0
45383;DHT22;42455;51.660;5.824;2024-02-15T19:46:11;15.3;93.0
45383;DHT22;42455;51.660;5.824;2024-02-15T19:51:17;15.3;93.0
45383;DHT22;42455;51.660;5.824;2024-02-15T19:56:23;15.2;93.0
45383;DHT22;42455;51.660;5.824;2024-02-15T20:01:29;15.2;93.0
45383;DHT22;42455;51.660;5.824;2024-02-15T20:06:36;15.2;93.0
45383;DHT22;42455;51.660;5.824;2024-02-15T20:11:42;15.1;93.0
45383;DHT22;42455;51.660;5.824;2024-02-15T20:16:49;15.1;93.0
45383;DHT22;42455;51.660;5.824;2024-02-15T20:21:54;15.0;93.0
45383;DHT22;42455;51.660;5.824;2024-02-15T20:27:00;15.0;93.0
45383;DHT22;42455;51.660;5.824;2024-02-15T20:32:07;15.0;93.5
45383;DHT22;42455;51.660;5.824;2024-02-15T20:37:13;14.9;93.5
45383;DHT22;42455;51.660;5.824;2024-02-15T20:42:19;14.9;93.5
45383;DHT22;42455;51.660;5.824;2024-02-15T20:47:26;14.8;93.5
45383;DHT22;42455;51.660;5.824;2024-02-15T20:52:31;14.8;93.5
45383;DHT22;42455;51.660;5.824;2024-02-15T20:57:38;14.7;93.5
45383;DHT22;42455;51.660;5.824;2024-02-15T21:02:44;14.6;93.5
45383;DHT22;42455;51.660;5.824;2024-02-15T21:07:50;14.6;93.5
45383;DHT22;42455;51.660;5.824;2024-02-15T21:12:56;14.5;93.5
45383;DHT22;42455;51.660;5.824;2024-02-15T21:18:03;14.4;93.5
45383;DHT22;42455;51.660;5.824;2024-02-15T21:23:09;14.4;94.0
45383;DHT22;42455;51.660;5.824;2024-02-15T21:28:15;14.3;94.0
45383;DHT22;42455;51.660;5.824;2024-02-15T21:33:20;14.3;94.0
45383;DHT22;42455;51.660;5.824;2024-02-15T21:38:26;14.3;94.0
45383;DHT22;42455;51.660;5.824;2024-02-15T21:43:33;14.2;94.5
45383;DHT22;42455;51.660;5.824;2024-02-15T21:48:39;14.2;94.5
45383;DHT22;42455;51.660;5.824;2024-02-15T21:53:45;14.2;94.5
45383;DHT22;42455;51.660;5.824;2024-02-15T21:58:51;14.2;94.5
45383;DHT22;42455;51.660;5.824;2024-02-15T22:03:56;14.2;94.5
45383;DHT22;42455;51.660;5.824;2024-02-15T22:09:03;14.1;94.5
45383;DHT22;42455;51.660;5.824;2024-02-15T22:14:09;14.1;94.5
45383;DHT22;42455;51.660;5.824;2024-02-15T22:19:15;14.1;94.5
45383;DHT22;42455;51.660;5.824;2024-02-15T22:24:21;14.0;94.5
45383;DHT22;42455;51.660;5.824;2024-02-15T22:29:28;14.0;94.5
45383;DHT22;42455;51.660;5.824;2024-02-15T22:34:34;13.9;94.5
45383;DHT22;42455;51.660;5.824;2024-02-15T22:39:40;13.9;94.5
45383;DHT22;42455;51.660;5.824;2024-02-15T22:44:46;13.9;94.5
45383;DHT22;42455;51.660;5.824;2024-02-15T22:49:53;13.9;94.5
45383;DHT22;42455;51.660;5.824;2024-02-15T22:54:59;13.9;94.5
45383;DHT22;42455;51.660;5.824;2024-02-15T23:00:05;13.9;94.5
45383;DHT22;42455;51.660;5.824;2024-02-15T23:05:11;13.9;94.5
45383;DHT22;42455;51.660;5.824;2024-02-15T23:10:17;13.8;94.5
45383;DHT22;42455;51.660;5.824;2024-02-15T23:15:23;13.8;94.5
45383;DHT22;42455;51.660;5.824;2024-02-15T23:20:30;13.8;94.5
45383;DHT22;42455;51.660;5.824;2024-02-15T23:25:36;13.8;95.0
45383;DHT22;42455;51.660;5.824;2024-02-15T23:30:42;13.8;95.0
45383;DHT22;42455;51.660;5.824;2024-02-15T23:35:48;13.8;95.0
45383;DHT22;42455;51.660;5.824;2024-02-15T23:40:55;13.8;94.5
45383;DHT22;42455;51.660;5.824;2024-02-15T23:46:01;13.8;94.5
45383;DHT22;42455;51.660;5.824;2024-02-15T23:51:08;13.8;94.5
45383;DHT22;42455;51.660;5.824;2024-02-15T23:56:13;13.7;94.5
